sensor_id;sensor_type;location;lat;lon;timestamp;pressure;altitude;pressure_sealevel;temperature;humidity
26697;BME280;14312;52.614;13.496;2022-07-06T00:01:01;101369.88;;;24.39;33.65
26697;BME280;14312;52.614;13.496;2022-07-06T00:03:47;101369.03;;;24.30;33.39
26697;BME280;14312;52.614;13.496;2022-07-06T00:06:34;101371.59;;;24.27;33.82
26697;BME280;14312;52.614;13.496;2022-07-06T00:09:20;101370.78;;;24.26;33.59
26697;BME280;14312;52.614;13.496;2022-07-06T00:12:06;101373.34;;;24.23;33.48
26697;BME280;14312;52.614;13.496;2022-07-06T00:14:52;101367.41;;;24.21;33.86
26697;BME280;14312;52.614;13.496;2022-07-06T00:17:38;101360.13;;;24.16;33.63
26697;BME280;14312;52.614;13.496;2022-07-06T00:20:24;101362.38;;;24.14;33.68
26697;BME280;14312;52.614;13.496;2022-07-06T00:23:10;101361.38;;;24.10;33.78
26697;BME280;14312;52.614;13.496;2022-07-06T00:25:56;101366.34;;;24.08;33.73
26697;BME280;14312;52.614;13.496;2022-07-06T00:28:42;101377.25;;;24.08;34.14
26697;BME280;14312;52.614;13.496;2022-07-06T00:31:31;101373.53;;;24.04;33.96
26697;BME280;14312;52.614;13.496;2022-07-06T00:34:17;101366.31;;;23.99;33.97
26697;BME280;14312;52.614;13.496;2022-07-06T00:37:03;101378.63;;;23.97;34.17
26697;BME280;14312;52.614;13.496;2022-07-06T00:39:49;101372.19;;;23.93;34.11
26697;BME280;14312;52.614;13.496;2022-07-06T00:42:42;101377.63;;;23.93;34.63
26697;BME280;14312;52.614;13.496;2022-07-06T00:45:28;101380.47;;;23.88;34.15
26697;BME280;14312;52.614;13.496;2022-07-06T00:48:14;101378.88;;;23.87;34.25
26697;BME280;14312;52.614;13.496;2022-07-06T00:51:00;101377.38;;;23.80;34.26
26697;BME280;14312;52.614;13.496;2022-07-06T00:53:47;101380.09;;;23.80;34.35
26697;BME280;14312;52.614;13.496;2022-07-06T00:56:34;101380.75;;;23.77;34.55
26697;BME280;14312;52.614;13.496;2022-07-06T00:59:20;101382.66;;;23.77;34.29
26697;BME280;14312;52.614;13.496;2022-07-06T01:02:06;101383.41;;;23.69;34.47
26697;BME280;14312;52.614;13.496;2022-07-06T01:04:52;101382.59;;;23.68;34.59
26697;BME280;14312;52.614;13.496;2022-07-06T01:07:40;101385.81;;;23.70;34.68
26697;BME280;14312;52.614;13.496;2022-07-06T01:10:26;101384.03;;;23.66;34.74
26697;BME280;14312;52.614;13.496;2022-07-06T01:13:12;101390.88;;;23.63;34.66
26697;BME280;14312;52.614;13.496;2022-07-06T01:15:59;101380.00;;;23.63;34.91
26697;BME280;14312;52.614;13.496;2022-07-06T01:18:45;101385.56;;;23.58;34.88
26697;BME280;14312;52.614;13.496;2022-07-06T01:21:31;101380.72;;;23.55;35.10
26697;BME280;14312;52.614;13.496;2022-07-06T01:24:17;101386.69;;;23.57;35.30
26697;BME280;14312;52.614;13.496;2022-07-06T01:27:04;101371.59;;;23.51;34.96
26697;BME280;14312;52.614;13.496;2022-07-06T01:29:51;101378.63;;;23.52;35.17
26697;BME280;14312;52.614;13.496;2022-07-06T01:32:38;101374.63;;;23.50;35.24
26697;BME280;14312;52.614;13.496;2022-07-06T01:35:29;101373.81;;;23.49;35.55
26697;BME280;14312;52.614;13.496;2022-07-06T01:38:17;101378.22;;;23.45;35.40
26697;BME280;14312;52.614;13.496;2022-07-06T01:41:05;101387.50;;;23.44;35.49
26697;BME280;14312;52.614;13.496;2022-07-06T01:43:51;101367.59;;;23.35;35.37
26697;BME280;14312;52.614;13.496;2022-07-06T01:46:38;101368.19;;;23.32;35.34
26697;BME280;14312;52.614;13.496;2022-07-06T01:49:25;101369.63;;;23.29;35.47
26697;BME280;14312;52.614;13.496;2022-07-06T01:52:14;101362.19;;;23.21;35.54
26697;BME280;14312;52.614;13.496;2022-07-06T01:55:03;101379.31;;;23.22;35.77
26697;BME280;14312;52.614;13.496;2022-07-06T01:57:50;101371.25;;;23.17;35.82
26697;BME280;14312;52.614;13.496;2022-07-06T02:00:36;101371.25;;;23.17;36.15
26697;BME280;14312;52.614;13.496;2022-07-06T02:03:22;101374.91;;;23.12;35.81
26697;BME280;14312;52.614;13.496;2022-07-06T02:06:09;101370.78;;;23.15;35.94
26697;BME280;14312;52.614;13.496;2022-07-06T02:08:55;101378.41;;;23.13;36.18
26697;BME280;14312;52.614;13.496;2022-07-06T02:11:42;101377.09;;;23.10;36.23
26697;BME280;14312;52.614;13.496;2022-07-06T02:14:28;101379.53;;;23.12;36.10
26697;BME280;14312;52.614;13.496;2022-07-06T02:17:14;101383.34;;;23.11;36.14
26697;BME280;14312;52.614;13.496;2022-07-06T02:20:07;101385.78;;;23.12;36.38
26697;BME280;14312;52.614;13.496;2022-07-06T02:22:53;101399.66;;;23.11;36.30
26697;BME280;14312;52.614;13.496;2022-07-06T02:25:40;101396.94;;;23.11;36.32
26697;BME280;14312;52.614;13.496;2022-07-06T02:28:27;101412.16;;;23.12;36.29
26697;BME280;14312;52.614;13.496;2022-07-06T02:31:14;101417.59;;;23.12;36.31
26697;BME280;14312;52.614;13.496;2022-07-06T02:34:00;101424.84;;;23.02;36.53
26697;BME280;14312;52.614;13.496;2022-07-06T02:36:46;101426.88;;;22.97;36.87
26697;BME280;14312;52.614;13.496;2022-07-06T02:39:32;101437.44;;;22.98;36.54
26697;BME280;14312;52.614;13.496;2022-07-06T02:42:18;101415.31;;;22.91;36.61
26697;BME280;14312;52.614;13.496;2022-07-06T02:45:07;101437.06;;;22.91;36.48
26697;BME280;14312;52.614;13.496;2022-07-06T02:47:53;101429.91;;;22.82;36.75
26697;BME280;14312;52.614;13.496;2022-07-06T02:50:41;101434.63;;;22.76;37.08
26697;BME280;14312;52.614;13.496;2022-07-06T02:53:28;101434.13;;;22.74;37.12
26697;BME280;14312;52.614;13.496;2022-07-06T02:56:14;101434.72;;;22.71;37.29
26697;BME280;14312;52.614;13.496;2022-07-06T02:59:00;101435.31;;;22.68;37.39
26697;BME280;14312;52.614;13.496;2022-07-06T03:01:46;101433.69;;;22.67;37.54
26697;BME280;14312;52.614;13.496;2022-07-06T03:04:33;101441.34;;;22.65;37.86
26697;BME280;14312;52.614;13.496;2022-07-06T03:07:19;101427.84;;;22.60;37.88
26697;BME280;14312;52.614;13.496;2022-07-06T03:10:06;101427.84;;;22.60;37.95
26697;BME280;14312;52.614;13.496;2022-07-06T03:12:52;101435.50;;;22.58;38.16
26697;BME280;14312;52.614;13.496;2022-07-06T03:15:38;101431.47;;;22.55;38.18
26697;BME280;14312;52.614;13.496;2022-07-06T03:18:24;101442.16;;;22.52;38.21
26697;BME280;14312;52.614;13.496;2022-07-06T03:21:10;101441.63;;;22.50;38.57
26697;BME280;14312;52.614;13.496;2022-07-06T03:23:56;101446.56;;;22.48;38.41
26697;BME280;14312;52.614;13.496;2022-07-06T03:26:42;101440.31;;;22.47;38.44
26697;BME280;14312;52.614;13.496;2022-07-06T03:29:28;101443.56;;;22.49;38.62
26697;BME280;14312;52.614;13.496;2022-07-06T03:32:14;101438.50;;;22.43;38.62
26697;BME280;14312;52.614;13.496;2022-07-06T03:35:01;101440.13;;;22.44;38.87
26697;BME280;14312;52.614;13.496;2022-07-06T03:37:47;101445.56;;;22.44;38.77
26697;BME280;14312;52.614;13.496;2022-07-06T03:40:33;101445.56;;;22.44;39.11
26697;BME280;14312;52.614;13.496;2022-07-06T03:43:19;101435.28;;;22.41;39.01
26697;BME280;14312;52.614;13.496;2022-07-06T03:46:08;101430.47;;;22.38;39.40
26697;BME280;14312;52.614;13.496;2022-07-06T03:48:54;101427.22;;;22.36;39.19
26697;BME280;14312;52.614;13.496;2022-07-06T03:51:40;101430.03;;;22.31;39.31
26697;BME280;14312;52.614;13.496;2022-07-06T03:54:26;101437.06;;;22.32;39.42
26697;BME280;14312;52.614;13.496;2022-07-06T03:57:12;101428.50;;;22.24;39.64
26697;BME280;14312;52.614;13.496;2022-07-06T03:59:59;101428.00;;;22.22;39.76
26697;BME280;14312;52.614;13.496;2022-07-06T04:02:45;101431.81;;;22.21;39.52
26697;BME280;14312;52.614;13.496;2022-07-06T04:05:31;101435.22;;;22.13;39.58
26697;BME280;14312;52.614;13.496;2022-07-06T04:08:17;101433.59;;;22.12;39.92
26697;BME280;14312;52.614;13.496;2022-07-06T04:11:03;101441.47;;;22.14;40.00
26697;BME280;14312;52.614;13.496;2022-07-06T04:13:49;101443.66;;;22.12;40.09
26697;BME280;14312;52.614;13.496;2022-07-06T04:16:35;101437.72;;;22.10;40.15
26697;BME280;14312;52.614;13.496;2022-07-06T04:19:21;101438.03;;;22.08;40.12
26697;BME280;14312;52.614;13.496;2022-07-06T04:22:07;101441.84;;;22.07;40.09
26697;BME280;14312;52.614;13.496;2022-07-06T04:24:53;101445.38;;;22.08;40.18
26697;BME280;14312;52.614;13.496;2022-07-06T04:27:42;101435.59;;;22.07;40.46
26697;BME280;14312;52.614;13.496;2022-07-06T04:30:28;101440.22;;;22.06;40.33
26697;BME280;14312;52.614;13.496;2022-07-06T04:33:14;101441.03;;;22.07;40.66
26697;BME280;14312;52.614;13.496;2022-07-06T04:36:00;101446.47;;;22.07;40.48
26697;BME280;14312;52.614;13.496;2022-07-06T04:38:46;101432.59;;;22.08;40.34
26697;BME280;14312;52.614;13.496;2022-07-06T04:41:33;101448.28;;;22.11;40.44
26697;BME280;14312;52.614;13.496;2022-07-06T04:44:21;101439.66;;;22.09;40.42
26697;BME280;14312;52.614;13.496;2022-07-06T04:47:07;101443.75;;;22.07;40.78
26697;BME280;14312;52.614;13.496;2022-07-06T04:49:52;101455.13;;;22.09;40.41
26697;BME280;14312;52.614;13.496;2022-07-06T04:52:38;101448.09;;;22.08;40.52
26697;BME280;14312;52.614;13.496;2022-07-06T04:55:24;101445.06;;;22.09;40.75
26697;BME280;14312;52.614;13.496;2022-07-06T04:58:10;101443.47;;;22.08;40.96
26697;BME280;14312;52.614;13.496;2022-07-06T05:00:57;101440.44;;;22.10;40.70
26697;BME280;14312;52.614;13.496;2022-07-06T05:03:42;101443.47;;;22.08;41.00
26697;BME280;14312;52.614;13.496;2022-07-06T05:06:28;101435.31;;;22.08;40.98
26697;BME280;14312;52.614;13.496;2022-07-06T05:09:15;101429.38;;;22.06;41.03
26697;BME280;14312;52.614;13.496;2022-07-06T05:12:00;101437.00;;;22.04;41.23
26697;BME280;14312;52.614;13.496;2022-07-06T05:14:46;101447.03;;;22.04;41.01
26697;BME280;14312;52.614;13.496;2022-07-06T05:17:32;101442.44;;;22.04;40.91
26697;BME280;14312;52.614;13.496;2022-07-06T05:20:19;101438.41;;;22.02;41.09
26697;BME280;14312;52.614;13.496;2022-07-06T05:23:05;101450.09;;;22.02;41.13
26697;BME280;14312;52.614;13.496;2022-07-06T05:25:51;101450.00;;;22.07;40.96
26697;BME280;14312;52.614;13.496;2022-07-06T05:28:37;101456.50;;;22.06;41.27
26697;BME280;14312;52.614;13.496;2022-07-06T05:31:23;101448.47;;;22.01;41.05
26697;BME280;14312;52.614;13.496;2022-07-06T05:34:09;101454.91;;;22.05;41.21
26697;BME280;14312;52.614;13.496;2022-07-06T05:36:54;101449.47;;;22.05;41.24
26697;BME280;14312;52.614;13.496;2022-07-06T05:39:40;101451.66;;;22.03;41.02
26697;BME280;14312;52.614;13.496;2022-07-06T05:42:29;101444.84;;;22.06;41.19
26697;BME280;14312;52.614;13.496;2022-07-06T05:45:18;101443.47;;;22.08;41.13
26697;BME280;14312;52.614;13.496;2022-07-06T05:48:05;101446.47;;;22.07;41.48
26697;BME280;14312;52.614;13.496;2022-07-06T05:51:09;101449.69;;;22.09;41.28
26697;BME280;14312;52.614;13.496;2022-07-06T05:53:55;101445.06;;;22.09;41.32
26697;BME280;14312;52.614;13.496;2022-07-06T05:56:41;101446.09;;;22.13;41.50
26697;BME280;14312;52.614;13.496;2022-07-06T05:59:27;101441.66;;;22.17;41.71
26697;BME280;14312;52.614;13.496;2022-07-06T06:02:13;101439.47;;;22.19;41.62
26697;BME280;14312;52.614;13.496;2022-07-06T06:04:59;101439.34;;;22.24;41.51
26697;BME280;14312;52.614;13.496;2022-07-06T06:07:48;101433.88;;;22.30;41.49
26697;BME280;14312;52.614;13.496;2022-07-06T06:10:35;101441.50;;;22.27;41.38
26697;BME280;14312;52.614;13.496;2022-07-06T06:13:21;101434.34;;;22.32;41.45
26697;BME280;14312;52.614;13.496;2022-07-06T06:16:07;101438.91;;;22.36;41.19
26697;BME280;14312;52.614;13.496;2022-07-06T06:18:53;101446.75;;;22.38;41.27
26697;BME280;14312;52.614;13.496;2022-07-06T06:21:39;101441.22;;;22.43;41.20
26697;BME280;14312;52.614;13.496;2022-07-06T06:24:25;101453.09;;;22.47;41.26
26697;BME280;14312;52.614;13.496;2022-07-06T06:27:13;101442.16;;;22.52;41.35
26697;BME280;14312;52.614;13.496;2022-07-06T06:29:59;101450.78;;;22.54;41.33
26697;BME280;14312;52.614;13.496;2022-07-06T06:32:45;101456.16;;;22.59;41.18
26697;BME280;14312;52.614;13.496;2022-07-06T06:35:31;101449.59;;;22.60;41.05
26697;BME280;14312;52.614;13.496;2022-07-06T06:38:19;101441.34;;;22.65;41.01
26697;BME280;14312;52.614;13.496;2022-07-06T06:41:05;101447.78;;;22.69;40.99
26697;BME280;14312;52.614;13.496;2022-07-06T06:43:51;101445.59;;;22.71;40.97
26697;BME280;14312;52.614;13.496;2022-07-06T06:46:37;101455.88;;;22.74;41.12
26697;BME280;14312;52.614;13.496;2022-07-06T06:49:23;101444.41;;;22.77;40.72
26697;BME280;14312;52.614;13.496;2022-07-06T06:52:09;101444.41;;;22.77;40.78
26697;BME280;14312;52.614;13.496;2022-07-06T06:54:55;101444.91;;;22.79;40.55
26697;BME280;14312;52.614;13.496;2022-07-06T06:57:41;101443.19;;;22.83;40.75
26697;BME280;14312;52.614;13.496;2022-07-06T07:00:27;101443.19;;;22.83;40.85
26697;BME280;14312;52.614;13.496;2022-07-06T07:03:16;101443.59;;;22.90;40.98
26697;BME280;14312;52.614;13.496;2022-07-06T07:06:03;101441.38;;;22.92;40.79
26697;BME280;14312;52.614;13.496;2022-07-06T07:08:49;101453.66;;;22.90;41.14
26697;BME280;14312;52.614;13.496;2022-07-06T07:11:35;101449.25;;;22.94;40.73
26697;BME280;14312;52.614;13.496;2022-07-06T07:14:21;101452.16;;;22.97;40.70
26697;BME280;14312;52.614;13.496;2022-07-06T07:17:07;101448.84;;;23.00;40.53
26697;BME280;14312;52.614;13.496;2022-07-06T07:19:53;101457.88;;;23.10;40.27
26697;BME280;14312;52.614;13.496;2022-07-06T07:22:41;101442.56;;;23.14;39.76
26697;BME280;14312;52.614;13.496;2022-07-06T07:25:27;101457.69;;;23.20;39.38
26697;BME280;14312;52.614;13.496;2022-07-06T07:28:13;101446.97;;;23.23;38.85
26697;BME280;14312;52.614;13.496;2022-07-06T07:30:59;101460.78;;;23.27;38.94
26697;BME280;14312;52.614;13.496;2022-07-06T07:33:45;101457.47;;;23.30;38.35
26697;BME280;14312;52.614;13.496;2022-07-06T07:36:31;101456.44;;;23.26;38.56
26697;BME280;14312;52.614;13.496;2022-07-06T07:39:17;101453.94;;;23.29;38.45
26697;BME280;14312;52.614;13.496;2022-07-06T07:42:03;101454.00;;;23.38;38.29
26697;BME280;14312;52.614;13.496;2022-07-06T07:44:49;101460.47;;;23.42;38.20
26697;BME280;14312;52.614;13.496;2022-07-06T07:47:35;101458.84;;;23.41;37.83
26697;BME280;14312;52.614;13.496;2022-07-06T07:50:21;101454.41;;;23.45;37.59
26697;BME280;14312;52.614;13.496;2022-07-06T07:53:07;101452.59;;;23.54;37.62
26697;BME280;14312;52.614;13.496;2022-07-06T07:55:53;101458.41;;;23.61;37.42
26697;BME280;14312;52.614;13.496;2022-07-06T07:58:39;101462.63;;;23.67;37.39
26697;BME280;14312;52.614;13.496;2022-07-06T08:01:25;101461.41;;;23.73;37.22
26697;BME280;14312;52.614;13.496;2022-07-06T08:04:11;101463.81;;;23.75;37.35
26697;BME280;14312;52.614;13.496;2022-07-06T08:06:57;101474.59;;;23.80;37.33
26697;BME280;14312;52.614;13.496;2022-07-06T08:09:43;101469.47;;;23.78;37.23
26697;BME280;14312;52.614;13.496;2022-07-06T08:12:29;101467.22;;;23.80;37.20
26697;BME280;14312;52.614;13.496;2022-07-06T08:15:15;101465.00;;;23.83;37.33
26697;BME280;14312;52.614;13.496;2022-07-06T08:18:01;101461.16;;;23.84;37.17
26697;BME280;14312;52.614;13.496;2022-07-06T08:20:47;101465.81;;;23.83;37.32
26697;BME280;14312;52.614;13.496;2022-07-06T08:23:33;101457.47;;;23.79;37.29
26697;BME280;14312;52.614;13.496;2022-07-06T08:26:23;101472.06;;;23.84;36.94
26697;BME280;14312;52.614;13.496;2022-07-06T08:29:09;101467.41;;;23.84;36.58
26697;BME280;14312;52.614;13.496;2022-07-06T08:31:58;101479.13;;;23.85;36.48
26697;BME280;14312;52.614;13.496;2022-07-06T08:34:45;101467.72;;;23.83;36.59
26697;BME280;14312;52.614;13.496;2022-07-06T08:37:31;101458.44;;;23.84;37.05
26697;BME280;14312;52.614;13.496;2022-07-06T08:40:17;101462.16;;;23.88;36.87
26697;BME280;14312;52.614;13.496;2022-07-06T08:43:09;101469.59;;;23.96;36.22
26697;BME280;14312;52.614;13.496;2022-07-06T08:45:55;101466.56;;;23.97;35.43
26697;BME280;14312;52.614;13.496;2022-07-06T08:48:41;101480.47;;;23.96;35.69
26697;BME280;14312;52.614;13.496;2022-07-06T08:51:27;101470.00;;;23.89;35.49
26697;BME280;14312;52.614;13.496;2022-07-06T08:54:14;101475.28;;;23.86;35.60
26697;BME280;14312;52.614;13.496;2022-07-06T08:57:02;101477.72;;;23.87;35.46
26697;BME280;14312;52.614;13.496;2022-07-06T08:59:48;101474.19;;;23.87;35.31
26697;BME280;14312;52.614;13.496;2022-07-06T09:02:34;101473.81;;;23.79;35.28
26697;BME280;14312;52.614;13.496;2022-07-06T09:05:21;101480.53;;;23.82;35.11
26697;BME280;14312;52.614;13.496;2022-07-06T09:08:07;101467.22;;;23.80;35.22
26697;BME280;14312;52.614;13.496;2022-07-06T09:10:54;101472.06;;;23.84;35.26
26697;BME280;14312;52.614;13.496;2022-07-06T09:13:40;101478.09;;;23.80;34.90
26697;BME280;14312;52.614;13.496;2022-07-06T09:16:28;101495.97;;;23.87;33.92
26697;BME280;14312;52.614;13.496;2022-07-06T09:19:16;101474.47;;;23.85;34.43
26697;BME280;14312;52.614;13.496;2022-07-06T09:22:02;101483.63;;;23.89;34.34
26697;BME280;14312;52.614;13.496;2022-07-06T09:24:48;101467.00;;;23.91;34.41
26697;BME280;14312;52.614;13.496;2022-07-06T09:27:44;101480.38;;;24.01;34.32
26697;BME280;14312;52.614;13.496;2022-07-06T09:30:35;101484.94;;;23.92;33.85
26697;BME280;14312;52.614;13.496;2022-07-06T09:33:26;101476.63;;;23.97;33.63
26697;BME280;14312;52.614;13.496;2022-07-06T09:36:12;101479.13;;;23.85;33.20
26697;BME280;14312;52.614;13.496;2022-07-06T09:39:14;101485.31;;;23.99;33.42
26697;BME280;14312;52.614;13.496;2022-07-06T09:42:02;101491.75;;;24.03;33.46
26697;BME280;14312;52.614;13.496;2022-07-06T09:44:53;101487.53;;;23.97;32.95
26697;BME280;14312;52.614;13.496;2022-07-06T09:47:39;101489.16;;;23.98;32.53
26697;BME280;14312;52.614;13.496;2022-07-06T09:50:38;101495.91;;;24.00;32.52
26697;BME280;14312;52.614;13.496;2022-07-06T09:53:26;101507.91;;;23.99;32.84
26697;BME280;14312;52.614;13.496;2022-07-06T09:56:12;101485.53;;;23.89;33.17
26697;BME280;14312;52.614;13.496;2022-07-06T09:58:59;101491.00;;;23.89;33.40
26697;BME280;14312;52.614;13.496;2022-07-06T10:01:45;101501.78;;;23.94;33.71
26697;BME280;14312;52.614;13.496;2022-07-06T10:04:31;101491.56;;;23.99;33.72
26697;BME280;14312;52.614;13.496;2022-07-06T10:07:18;101488.53;;;24.01;33.46
26697;BME280;14312;52.614;13.496;2022-07-06T10:10:04;101494.00;;;24.01;33.68
26697;BME280;14312;52.614;13.496;2022-07-06T10:12:51;101511.13;;;24.01;34.06
26697;BME280;14312;52.614;13.496;2022-07-06T10:15:40;101497.53;;;24.01;33.84
26697;BME280;14312;52.614;13.496;2022-07-06T10:18:26;101492.38;;;24.00;33.86
26697;BME280;14312;52.614;13.496;2022-07-06T10:21:12;101495.56;;;24.02;33.63
26697;BME280;14312;52.614;13.496;2022-07-06T10:23:59;101498.63;;;24.00;33.81
26697;BME280;14312;52.614;13.496;2022-07-06T10:26:47;101494.59;;;23.98;34.04
26697;BME280;14312;52.614;13.496;2022-07-06T10:29:33;101511.66;;;23.90;34.30
26697;BME280;14312;52.614;13.496;2022-07-06T10:32:20;101499.28;;;23.84;34.36
26697;BME280;14312;52.614;13.496;2022-07-06T10:35:08;101501.88;;;23.89;34.45
26697;BME280;14312;52.614;13.496;2022-07-06T10:38:08;101496.34;;;23.94;34.40
26697;BME280;14312;52.614;13.496;2022-07-06T10:41:02;101495.63;;;23.88;34.65
26697;BME280;14312;52.614;13.496;2022-07-06T10:43:48;101487.16;;;23.90;34.33
26697;BME280;14312;52.614;13.496;2022-07-06T10:46:35;101493.72;;;23.89;34.71
26697;BME280;14312;52.614;13.496;2022-07-06T10:49:22;101484.94;;;23.92;35.04
26697;BME280;14312;52.614;13.496;2022-07-06T10:52:08;101477.28;;;23.94;35.04
26697;BME280;14312;52.614;13.496;2022-07-06T10:54:56;101488.28;;;24.11;34.69
26697;BME280;14312;52.614;13.496;2022-07-06T10:57:52;101466.59;;;24.19;34.88
26697;BME280;14312;52.614;13.496;2022-07-06T11:00:48;101480.72;;;24.30;35.00
26697;BME280;14312;52.614;13.496;2022-07-06T11:06:45;101484.53;;;24.43;34.77
26697;BME280;14312;52.614;13.496;2022-07-06T11:09:32;101477.00;;;24.48;34.31
26697;BME280;14312;52.614;13.496;2022-07-06T11:12:18;101468.88;;;24.57;34.26
26697;BME280;14312;52.614;13.496;2022-07-06T11:15:04;101467.63;;;24.63;33.67
26697;BME280;14312;52.614;13.496;2022-07-06T11:18:10;101479.41;;;24.81;33.36
26697;BME280;14312;52.614;13.496;2022-07-06T11:21:17;101487.34;;;24.91;33.56
26697;BME280;14312;52.614;13.496;2022-07-06T11:24:05;101482.47;;;24.88;33.11
26697;BME280;14312;52.614;13.496;2022-07-06T11:26:52;101493.38;;;24.88;33.13
26697;BME280;14312;52.614;13.496;2022-07-06T11:29:39;101485.84;;;24.85;32.91
26697;BME280;14312;52.614;13.496;2022-07-06T11:32:26;101485.84;;;24.85;32.66
26697;BME280;14312;52.614;13.496;2022-07-06T11:35:12;101487.56;;;24.81;33.01
26697;BME280;14312;52.614;13.496;2022-07-06T11:38:25;101486.16;;;24.83;32.70
26697;BME280;14312;52.614;13.496;2022-07-06T11:41:11;101488.53;;;24.76;32.77
26697;BME280;14312;52.614;13.496;2022-07-06T11:43:59;101490.94;;;24.78;32.93
26697;BME280;14312;52.614;13.496;2022-07-06T11:46:45;101484.16;;;24.67;33.28
26697;BME280;14312;52.614;13.496;2022-07-06T11:49:32;101489.28;;;24.68;33.34
26697;BME280;14312;52.614;13.496;2022-07-06T11:52:30;101486.25;;;24.70;33.30
26697;BME280;14312;52.614;13.496;2022-07-06T11:55:16;101482.53;;;24.66;33.71
26697;BME280;14312;52.614;13.496;2022-07-06T11:58:02;101490.25;;;24.64;33.86
26697;BME280;14312;52.614;13.496;2022-07-06T12:01:04;101479.03;;;24.74;33.28
26697;BME280;14312;52.614;13.496;2022-07-06T12:03:51;101469.41;;;24.68;33.54
26697;BME280;14312;52.614;13.496;2022-07-06T12:06:37;101458.84;;;24.75;33.30
26697;BME280;14312;52.614;13.496;2022-07-06T12:09:23;101465.28;;;24.79;33.08
26697;BME280;14312;52.614;13.496;2022-07-06T12:12:10;101450.06;;;24.78;33.60
26697;BME280;14312;52.614;13.496;2022-07-06T12:14:56;101451.50;;;24.84;33.89
26697;BME280;14312;52.614;13.496;2022-07-06T12:17:47;101451.25;;;24.94;34.11
26697;BME280;14312;52.614;13.496;2022-07-06T12:20:33;101451.72;;;24.96;33.82
26697;BME280;14312;52.614;13.496;2022-07-06T12:23:19;101455.13;;;25.10;34.03
26697;BME280;14312;52.614;13.496;2022-07-06T12:26:06;101451.63;;;25.18;34.02
26697;BME280;14312;52.614;13.496;2022-07-06T12:29:12;101455.19;;;25.27;33.50
26697;BME280;14312;52.614;13.496;2022-07-06T12:31:58;101447.31;;;25.26;33.60
26697;BME280;14312;52.614;13.496;2022-07-06T12:34:45;101439.94;;;25.35;33.71
26697;BME280;14312;52.614;13.496;2022-07-06T12:37:31;101446.38;;;25.48;33.14
26697;BME280;14312;52.614;13.496;2022-07-06T12:40:16;101449.59;;;25.58;32.89
26697;BME280;14312;52.614;13.496;2022-07-06T12:43:03;101451.22;;;25.68;32.54
26697;BME280;14312;52.614;13.496;2022-07-06T12:45:49;101434.03;;;25.76;32.80
26697;BME280;14312;52.614;13.496;2022-07-06T12:48:51;101451.53;;;25.92;32.52
26697;BME280;14312;52.614;13.496;2022-07-06T12:54:48;101442.06;;;25.98;31.42
26697;BME280;14312;52.614;13.496;2022-07-06T12:57:46;101439.16;;;26.03;31.42
26697;BME280;14312;52.614;13.496;2022-07-06T13:00:44;101441.38;;;26.10;31.94
26697;BME280;14312;52.614;13.496;2022-07-06T13:03:38;101441.56;;;26.13;31.13
26697;BME280;14312;52.614;13.496;2022-07-06T13:06:34;101439.75;;;26.18;31.79
26697;BME280;14312;52.614;13.496;2022-07-06T13:09:20;101443.63;;;26.08;31.11
26697;BME280;14312;52.614;13.496;2022-07-06T13:12:07;101432.38;;;26.09;31.90
26697;BME280;14312;52.614;13.496;2022-07-06T13:14:53;101430.13;;;26.11;31.44
26697;BME280;14312;52.614;13.496;2022-07-06T13:17:39;101435.41;;;26.17;31.52
26697;BME280;14312;52.614;13.496;2022-07-06T13:20:25;101433.00;;;26.15;31.50
26697;BME280;14312;52.614;13.496;2022-07-06T13:23:11;101433.81;;;26.16;31.96
26697;BME280;14312;52.614;13.496;2022-07-06T13:25:57;101444.09;;;26.19;31.53
26697;BME280;14312;52.614;13.496;2022-07-06T13:28:42;101426.59;;;26.20;31.28
26697;BME280;14312;52.614;13.496;2022-07-06T13:31:29;101450.06;;;26.21;30.57
26697;BME280;14312;52.614;13.496;2022-07-06T13:34:15;101443.91;;;26.24;30.45
26697;BME280;14312;52.614;13.496;2022-07-06T13:37:02;101423.84;;;26.20;30.36
26697;BME280;14312;52.614;13.496;2022-07-06T13:39:49;101429.94;;;26.17;30.53
26697;BME280;14312;52.614;13.496;2022-07-06T13:42:35;101427.38;;;26.20;30.59
26697;BME280;14312;52.614;13.496;2022-07-06T13:45:21;101431.88;;;26.16;29.96
26697;BME280;14312;52.614;13.496;2022-07-06T13:48:07;101435.09;;;26.18;29.82
26697;BME280;14312;52.614;13.496;2022-07-06T13:50:52;101434.97;;;26.15;29.60
26697;BME280;14312;52.614;13.496;2022-07-06T13:53:39;101434.16;;;26.14;30.36
26697;BME280;14312;52.614;13.496;2022-07-06T13:56:25;101424.16;;;26.18;30.80
26697;BME280;14312;52.614;13.496;2022-07-06T13:59:11;101421.13;;;26.20;30.80
26697;BME280;14312;52.614;13.496;2022-07-06T14:01:57;101432.50;;;26.30;30.51
26697;BME280;14312;52.614;13.496;2022-07-06T14:04:43;101423.34;;;26.35;30.21
26697;BME280;14312;52.614;13.496;2022-07-06T14:07:29;101410.28;;;26.49;30.11
26697;BME280;14312;52.614;13.496;2022-07-06T14:10:15;101413.75;;;26.58;30.10
26697;BME280;14312;52.614;13.496;2022-07-06T14:13:01;101413.41;;;26.68;30.04
26697;BME280;14312;52.614;13.496;2022-07-06T14:15:47;101418.03;;;26.76;30.21
26697;BME280;14312;52.614;13.496;2022-07-06T14:18:33;101416.81;;;26.86;29.55
26697;BME280;14312;52.614;13.496;2022-07-06T14:21:20;101409.28;;;26.92;29.33
26697;BME280;14312;52.614;13.496;2022-07-06T14:24:06;101417.41;;;27.00;29.55
26697;BME280;14312;52.614;13.496;2022-07-06T14:26:56;101398.81;;;27.14;29.29
26697;BME280;14312;52.614;13.496;2022-07-06T14:29:46;101410.78;;;27.10;28.78